Latest Weather Observations for Walpole North

IDW60801

Issued at 5:33 am WST Thursday 1 September 2016 (issued every 30 minutes, with the page automatically refreshed every 10 minutes)

About weather observations | Map of weather stations | Latest weather observations for WA | Other Formats
Station Details ID: 009998 Name: NORTH WALPOLE Lat: -34.95 Lon: 116.72 Height: 73.0 m
Data from the previous 72 hours. | See also: Recent months at Walpole North
Date/Time
WST
Temp
°C
App
Temp
°C
Dew
Point
°C
Rel
Hum
%
Delta-T
°C
Wind Press
QNH
hPa
Press
MSL
hPa
Rain since
9am
mm
Dir  Spd
km/h
Gust
km/h
Spd
kts
Gust
kts
01/05:30am 8.6 7.6 5.5 81 1.4 CALM 0 0 0 0 1023.2 1023.2 1.8
01/05:00am 9.1 7.1 6.2 82 1.3 SSW 6 15 3 8 1022.9 1022.9 1.8
01/04:30am 9.9 6.5 5.7 75 1.9 SW 13 20 7 11 1022.9 1022.9 1.8
01/04:00am 10.0 6.5 5.4 73 2.1 WSW 13 22 7 12 1022.7 1022.7 1.8
01/03:30am 9.1 6.4 5.8 80 1.5 SW 9 15 5 8 1022.8 1022.8 1.8
01/03:00am 9.3 8.5 6.6 83 1.3 CALM 0 9 0 5 1022.4 1022.4 1.8
01/02:30am 9.5 7.1 6.8 83 1.3 SW 9 15 5 8 1022.5 1022.5 1.8
01/02:00am 9.4 7.6 7.0 85 1.1 SW 6 15 3 8 1022.6 1022.6 1.8
01/01:30am 9.4 7.0 7.2 86 1.0 SW 9 13 5 7 1022.6 1022.6 1.8
01/01:00am 9.2 8.3 7.8 91 0.7 SW 2 11 1 6 1022.4 1022.4 1.8
01/12:30am 8.4 6.2 6.2 86 1.0 WSW 7 11 4 6 1022.2 1022.2 1.8
01/12:00am 8.5 7.7 6.3 86 1.0 CALM 0 0 0 0 1021.6 1021.6 1.8
 
Date/Time
WST
Temp
°C
App
Temp
°C
Dew
Point
°C
Rel
Hum
%
Delta-T
°C
Wind Press
QNH
hPa
Press
MSL
hPa
Rain since
9am
mm
Dir  Spd
km/h
Gust
km/h
Spd
kts
Gust
kts
31/11:30pm 8.6 7.0 6.2 85 1.1 SW 4 9 2 5 1021.4 1021.4 1.8
31/11:00pm 9.1 6.7 7.1 87 0.9 SSW 9 13 5 7 1021.3 1021.3 1.8
31/10:30pm 9.6 6.7 8.0 90 0.8 SSW 13 22 7 12 1021.5 1021.5 1.8
31/10:00pm 10.7 8.5 7.8 82 1.4 SW 9 24 5 13 1021.5 1021.5 1.2
31/09:30pm 10.2 8.0 5.4 72 2.2 SSW 6 11 3 6 1021.2 1021.2 1.2
31/09:00pm 10.6 6.0 5.8 72 2.2 SSW 19 26 10 14 1020.8 1020.8 1.0
31/08:30pm 10.8 7.2 6.6 75 2.0 S 15 30 8 16 1020.4 1020.4 1.0
31/08:00pm 11.0 6.1 6.9 76 1.9 SSW 22 33 12 18 1020.0 1020.0 1.0
31/07:30pm 10.9 9.0 7.6 80 1.6 S 7 13 4 7 1019.4 1019.5 1.0
31/07:00pm 11.2 6.9 7.1 76 2.0 SSW 19 26 10 14 1018.8 1018.8 1.0
31/06:30pm 11.5 8.4 7.4 76 2.0 S 13 26 7 14 1018.2 1018.2 1.0
31/06:00pm 11.4 7.7 7.9 79 1.7 SSW 17 28 9 15 1017.8 1017.8 1.0
31/05:30pm 11.6 8.2 7.7 77 1.9 S 15 30 8 16 1017.2 1017.2 1.0
31/05:00pm 11.5 7.3 7.4 76 2.0 S 19 28 10 15 1016.4 1016.4 1.0
31/04:30pm 12.1 6.9 7.4 73 2.3 SSW 24 35 13 19 1016.0 1016.0 1.0
31/04:00pm 12.7 7.6 7.8 72 2.4 SSW 24 39 13 21 1015.5 1015.5 1.0
31/03:30pm 13.7 8.6 9.2 74 2.3 S 26 44 14 24 1014.9 1014.9 1.0
31/03:00pm 14.2 10.0 9.6 74 2.4 SSW 22 41 12 22 1014.6 1014.6 1.0
31/02:34pm 14.0 8.4 8.8 71 2.6 S 28 46 15 25 1014.3 1014.3 1.0
31/02:30pm 13.7 8.2 9.0 73 2.4 SSW 28 41 15 22 1014.3 1014.3 1.0
31/02:03pm 13.5 7.7 7.9 69 2.8 SSW 28 46 15 25 1013.7 1013.7 1.0
31/02:00pm 14.0 8.1 9.0 72 2.5 SSW 30 46 16 25 1013.7 1013.7 1.0
31/01:34pm 14.2 8.3 9.0 71 2.6 SSW 30 48 16 26 1013.5 1013.5 1.0
31/01:30pm 14.0 9.1 10.0 77 2.1 SSW 26 44 14 24 1013.4 1013.4 1.0
31/01:00pm 13.8 10.2 10.4 80 1.8 S 20 35 11 19 1013.0 1013.0 1.0
31/12:42pm 13.1 7.7 9.5 79 1.8 SSW 28 46 15 25 1013.0 1013.0 1.0
31/12:30pm 13.0 6.9 10.4 84 1.4 SSW 33 48 18 26 1013.1 1013.1 1.0
31/12:21pm 12.1 6.5 10.3 89 0.9 SSW 30 48 16 26 1013.1 1013.1 1.0
31/12:00pm 12.7 9.2 10.9 89 0.9 S 20 43 11 23 1012.8 1012.8 0.8
31/11:30am 12.5 8.0 10.2 86 1.2 SSW 24 37 13 20 1012.6 1012.6 0.8
31/11:00am 12.1 7.8 10.7 91 0.7 SSW 24 39 13 21 1012.4 1012.4 0.8
31/10:30am 11.7 8.3 11.4 98 0.2 SSW 20 32 11 17 1012.2 1012.2 0.8
31/10:00am 11.4 7.2 11.2 99 0.1 SSW 24 33 13 18 1011.8 1011.8 0.6
31/09:30am 11.4 8.2 11.2 99 0.1 SSW 19 32 10 17 1011.7 1011.7 0.4
31/09:00am 11.3 8.4 11.1 99 0.1 SSW 17 26 9 14 1011.3 1011.3 5.0
31/08:30am 11.4 8.6 11.2 99 0.1 SW 17 28 9 15 1010.8 1010.8 4.6
31/08:00am 11.5 10.6 11.3 99 0.1 WSW 7 15 4 8 1010.2 1010.2 4.2
31/07:30am 11.1 8.6 10.9 99 0.1 NNW 15 19 8 10 1009.9 1009.9 2.0
31/07:00am 11.1 8.5 10.6 97 0.3 NW 15 22 8 12 1009.8 1009.8 0.8
31/06:30am 11.3 9.0 10.4 94 0.5 NNW 13 20 7 11 1009.2 1009.2 0.2
31/06:00am 11.3 9.3 10.2 93 0.6 NNW 11 19 6 10 1008.7 1008.7 0.0
31/05:30am 11.6 8.7 9.7 88 1.0 NNW 15 24 8 13 1008.6 1008.6 0.0
31/05:00am 11.4 8.8 9.3 87 1.1 NNW 13 20 7 11 1008.4 1008.4 0.0
31/04:30am 11.4 8.7 9.0 85 1.2 N 13 24 7 13 1008.1 1008.1 0.0
31/04:00am 11.4 8.2 8.6 83 1.4 NNW 15 26 8 14 1008.4 1008.4 0.0
31/03:30am 11.6 8.4 8.6 82 1.5 NNW 15 24 8 13 1008.6 1008.6 0.0
31/03:00am 11.7 8.5 8.6 81 1.5 N 15 24 8 13 1008.7 1008.7 0.0
31/02:30am 11.6 8.4 8.3 80 1.6 N 15 26 8 14 1008.9 1008.9 0.0
31/02:00am 12.1 8.6 8.6 79 1.7 NNW 17 32 9 17 1009.4 1009.4 0.0
31/01:30am 11.9 8.3 8.4 79 1.7 N 17 28 9 15 1009.5 1009.5 0.0
31/01:00am 12.1 8.8 8.2 77 1.9 N 15 28 8 15 1010.0 1010.0 0.0
31/12:30am 12.3 9.5 8.4 77 1.9 N 13 20 7 11 1010.3 1010.3 0.0
31/12:00am 12.0 9.1 8.3 78 1.8 N 13 19 7 10 1010.3 1010.3 0.0
 
Date/Time
WST
Temp
°C
App
Temp
°C
Dew
Point
°C
Rel
Hum
%
Delta-T
°C
Wind Press
QNH
hPa
Press
MSL
hPa
Rain since
9am
mm
Dir  Spd
km/h
Gust
km/h
Spd
kts
Gust
kts
30/11:30pm 12.0 9.5 8.3 78 1.8 N 11 20 6 11 1010.6 1010.6 0.0
30/11:00pm 12.1 9.2 8.2 77 1.9 NNE 13 20 7 11 1010.8 1010.8 0.0
30/10:30pm 12.2 9.7 8.3 77 1.9 N 11 22 6 12 1011.1 1011.1 0.0
30/10:00pm 12.0 9.1 8.1 77 1.9 N 13 20 7 11 1011.4 1011.4 0.0
30/09:30pm 12.0 8.7 7.9 76 2.0 NNE 15 24 8 13 1011.6 1011.6 0.0
30/09:00pm 12.5 9.5 7.8 73 2.3 N 13 20 7 11 1012.2 1012.2 0.0
30/08:30pm 13.1 10.2 8.0 71 2.5 N 13 19 7 10 1012.4 1012.4 0.0
30/08:00pm 13.0 10.8 7.7 70 2.6 N 9 19 5 10 1012.6 1012.6 0.0
30/07:30pm 13.1 10.1 7.5 69 2.7 N 13 22 7 12 1012.7 1012.7 0.0
30/07:00pm 13.0 10.3 7.5 69 2.7 NNW 11 19 6 10 1012.6 1012.6 0.0
30/06:30pm 12.4 10.4 7.1 70 2.6 NNW 7 11 4 6 1012.5 1012.5 0.0
30/06:00pm 12.9 10.9 7.1 68 2.8 NNW 7 13 4 7 1012.5 1012.5 0.0
30/05:30pm 13.6 11.7 7.6 67 3.0 N 7 11 4 6 1012.4 1012.4 0.0
30/05:00pm 14.4 12.1 7.5 63 3.4 NNW 9 15 5 8 1012.4 1012.4 0.0
30/04:30pm 14.3 11.4 8.0 66 3.1 NW 13 19 7 10 1012.5 1012.5 0.0
30/04:00pm 14.4 10.4 6.7 60 3.7 NW 17 28 9 15 1012.6 1012.6 0.0
30/03:30pm 14.8 11.6 8.3 65 3.3 NW 15 20 8 11 1012.7 1012.7 0.0
30/03:00pm 14.7 10.8 7.0 60 3.8 NW 17 26 9 14 1012.7 1012.7 0.0
30/02:30pm 15.7 12.5 8.4 62 3.7 WNW 15 20 8 11 1012.9 1012.9 0.0
30/02:00pm 14.7 11.3 7.5 62 3.6 NW 15 20 8 11 1013.0 1013.0 0.0
30/01:30pm 14.1 10.3 7.4 64 3.3 WNW 17 26 9 14 1013.4 1013.4 0.0
30/01:00pm 13.7 9.4 7.7 67 3.0 NW 20 30 11 16 1013.8 1013.8 0.0
30/12:30pm 13.8 10.0 7.6 66 3.1 WNW 17 30 9 16 1014.2 1014.2 0.0
30/12:00pm 13.6 10.5 8.7 72 2.5 NW 15 28 8 15 1014.6 1014.6 0.0
30/11:30am 13.2 9.5 8.1 71 2.5 NW 17 26 9 14 1014.9 1014.9 0.0
30/11:00am 13.5 9.9 8.4 71 2.6 NW 17 24 9 13 1015.2 1015.2 0.0
30/10:30am 12.9 9.9 7.8 71 2.5 NW 13 22 7 12 1015.4 1015.4 0.0
30/10:00am 12.7 9.0 8.0 73 2.3 NW 17 26 9 14 1015.5 1015.5 0.0
30/09:30am 12.3 9.6 7.4 72 2.4 NNW 11 19 6 10 1015.6 1015.6 0.0
30/09:00am 11.9 9.1 7.0 72 2.4 NNW 11 20 6 11 1015.9 1015.9 0.6
30/08:30am 10.9 9.1 7.0 77 1.9 NNW 6 11 3 6 1015.9 1015.9 0.6
30/08:00am 10.2 8.1 6.7 79 1.6 NNW 7 11 4 6 1015.9 1015.9 0.6
30/07:30am 9.7 6.5 6.8 82 1.4 NNW 13 19 7 10 1015.8 1015.8 0.6
30/07:00am 9.3 6.5 6.9 85 1.1 NNW 11 15 6 8 1015.8 1015.8 0.6
30/06:30am 9.1 6.0 7.1 87 0.9 NNW 13 15 7 8 1015.6 1015.6 0.6
30/06:00am 8.7 6.0 7.2 90 0.7 NNW 11 17 6 9 1015.4 1015.4 0.6
30/05:30am 8.9 6.8 8.1 95 0.4 NNW 9 15 5 8 1015.3 1015.3 0.6
30/05:00am 8.7 8.0 8.6 99 0.0 NW 2 13 1 7 1015.2 1015.2 0.6
30/04:30am 8.8 8.1 8.7 99 0.0 NNW 2 11 1 6 1015.1 1015.1 0.6
30/04:00am 8.8 7.2 8.7 99 0.0 NNW 7 15 4 8 1014.9 1014.9 0.6
30/03:30am 8.7 5.5 8.6 99 0.0 NNW 15 20 8 11 1015.0 1015.0 0.6
30/03:00am 8.5 6.0 8.4 99 0.0 NW 11 19 6 10 1015.2 1015.2 0.6
30/02:30am 8.6 6.2 8.5 99 0.0 NW 11 13 6 7 1015.5 1015.5 0.6
30/02:00am 8.8 6.0 8.7 99 0.0 NW 13 17 7 9 1015.7 1015.7 0.6
30/01:30am 8.6 6.6 8.5 99 0.0 NW 9 13 5 7 1015.8 1015.8 0.6
30/01:00am 9.1 8.9 9.0 99 0.0 CALM 0 0 0 0 1015.9 1015.9 0.6
30/12:30am 9.1 8.1 8.8 98 0.1 NNW 4 7 2 4 1016.0 1016.0 0.6
30/12:00am 9.3 7.1 9.2 99 0.0 NW 11 15 6 8 1016.1 1016.1 0.6
 
Date/Time
WST
Temp
°C
App
Temp
°C
Dew
Point
°C
Rel
Hum
%
Delta-T
°C
Wind Press
QNH
hPa
Press
MSL
hPa
Rain since
9am
mm
Dir  Spd
km/h
Gust
km/h
Spd
kts
Gust
kts
29/11:30pm 9.3 9.1 9.2 99 0.0 CALM 0 0 0 0 1016.2 1016.2 0.6
29/11:00pm 9.2 9.0 9.1 99 0.0 CALM 0 0 0 0 1016.4 1016.4 0.6
29/10:30pm 9.2 9.0 9.1 99 0.0 CALM 0 0 0 0 1016.4 1016.4 0.6
29/10:00pm 9.3 8.8 9.2 99 0.0 NNW 2 9 1 5 1016.5 1016.5 0.6
29/09:30pm 9.3 9.1 9.2 99 0.0 CALM 0 0 0 0 1016.7 1016.7 0.6
29/09:00pm 9.4 9.3 9.3 99 0.0 CALM 0 0 0 0 1016.8 1016.8 0.6
29/08:30pm 9.3 9.0 8.8 97 0.2 CALM 0 0 0 0 1016.7 1016.7 0.2
29/08:00pm 9.5 9.2 8.6 94 0.4 CALM 0 6 0 3 1016.5 1016.5 0.0
29/07:30pm 9.5 7.9 7.8 89 0.8 W 6 13 3 7 1016.4 1016.4 0.0
29/07:00pm 10.0 8.0 7.3 83 1.3 SW 7 13 4 7 1016.0 1016.0 0.0
29/06:30pm 10.6 10.0 7.3 80 1.6 CALM 0 0 0 0 1015.9 1015.9 0.0
29/06:00pm 10.9 10.2 7.0 77 1.9 CALM 0 0 0 0 1015.7 1015.7 0.0
29/05:30pm 11.5 10.1 7.2 75 2.1 SSW 4 7 2 4 1015.5 1015.5 0.0
29/05:00pm 11.4 9.4 6.9 74 2.1 SSW 7 13 4 7 1015.5 1015.5 0.0
29/04:30pm 11.7 8.4 6.6 71 2.4 SSW 13 20 7 11 1015.3 1015.3 0.0
29/04:00pm 11.7 9.2 6.6 71 2.4 WSW 9 13 5 7 1015.2 1015.2 0.0
29/03:30pm 12.4 9.4 6.2 66 2.9 SW 11 17 6 9 1015.1 1015.1 0.0
29/03:00pm 12.6 9.8 7.1 69 2.7 SW 11 19 6 10 1015.0 1015.0 0.0
29/02:30pm 12.0 8.4 6.7 70 2.5 SW 15 20 8 11 1015.0 1015.0 0.0
29/02:00pm 12.1 8.9 7.0 71 2.5 SW 13 20 7 11 1015.0 1015.0 0.0
29/01:30pm 12.2 9.4 7.1 71 2.5 SW 11 19 6 10 1015.1 1015.1 0.0
29/01:00pm 12.3 9.5 7.0 70 2.6 SW 11 20 6 11 1015.1 1015.1 0.0
29/12:30pm 12.7 9.7 7.8 72 2.4 SW 13 19 7 10 1015.2 1015.2 0.0
29/12:00pm 12.4 9.8 7.7 73 2.3 SW 11 19 6 10 1015.6 1015.6 0.0
29/11:30am 11.8 8.8 7.5 75 2.1 SW 13 22 7 12 1015.8 1015.8 0.0
29/11:00am 12.6 10.1 8.3 75 2.1 SW 11 20 6 11 1015.8 1015.8 0.0
29/10:30am 11.8 8.8 7.5 75 2.1 SW 13 20 7 11 1015.9 1015.9 0.0
29/10:00am 11.5 8.4 7.4 76 2.0 SW 13 20 7 11 1015.9 1015.9 0.0
29/09:30am 11.2 9.5 8.4 83 1.4 SW 7 15 4 8 1015.8 1015.8 0.0
29/09:00am 10.5 8.0 8.1 85 1.2 WSW 11 15 6 8 1015.8 1015.8 14.6
29/08:30am 10.2 8.1 8.1 87 1.0 SW 9 19 5 10 1015.5 1015.5 14.6
29/08:00am 9.8 9.2 8.9 94 0.4 SSW 2 9 1 5 1015.2 1015.2 14.6
29/07:30am 9.8 7.5 9.0 95 0.4 SSW 11 22 6 12 1015.0 1015.0 14.6
29/07:00am 9.4 7.8 8.8 96 0.3 SW 7 13 4 7 1014.9 1014.9 14.6
29/06:30am 9.4 7.2 9.3 99 0.0 SSW 11 17 6 9 1014.5 1014.5 14.6
29/06:00am 9.4 7.2 9.3 99 0.0 SSW 11 20 6 11 1014.5 1014.5 14.4

Other Formats:

Comma delimited format used in spreadsheet applications
http://www.bom.gov.au/fwo/IDW60801/IDW60801.95647.axf

JavaScript Object Notation format (JSON) in row-major order
http://www.bom.gov.au/fwo/IDW60801/IDW60801.95647.json